createdAt,value
2022-09-06T00:01:15.486Z,18.00
2022-09-06T00:03:44.609Z,18.00
2022-09-06T00:06:17.778Z,18.00
2022-09-06T00:08:47.580Z,17.90
2022-09-06T00:11:17.613Z,17.90
2022-09-06T00:13:46.903Z,17.90
2022-09-06T00:16:21.231Z,17.90
2022-09-06T00:18:53.097Z,17.90
2022-09-06T00:21:28.260Z,17.80
2022-09-06T00:23:56.952Z,17.80
2022-09-06T00:26:25.918Z,17.80
2022-09-06T00:28:54.173Z,17.70
2022-09-06T00:31:25.655Z,17.70
2022-09-06T00:33:53.659Z,17.70
2022-09-06T00:36:23.913Z,17.60
2022-09-06T00:38:52.859Z,17.60
2022-09-06T00:41:20.784Z,17.60
2022-09-06T00:43:48.877Z,17.60
2022-09-06T00:46:23.776Z,17.50
2022-09-06T00:49:05.589Z,17.50
2022-09-06T00:51:35.091Z,17.50
2022-09-06T00:54:05.369Z,17.50
2022-09-06T00:56:37.690Z,17.40
2022-09-06T00:59:07.193Z,17.40
2022-09-06T01:01:36.214Z,17.30
2022-09-06T01:04:04.829Z,17.30
2022-09-06T01:06:38.821Z,17.30
2022-09-06T01:09:18.503Z,17.30
2022-09-06T01:12:09.735Z,17.30
2022-09-06T01:14:54.004Z,17.30
2022-09-06T01:17:58.993Z,17.30
2022-09-06T01:20:46.929Z,17.20
2022-09-06T01:23:40.709Z,17.20
2022-09-06T01:26:30.582Z,17.10
2022-09-06T01:28:59.198Z,17.10
2022-09-06T01:31:31.415Z,17.10
2022-09-06T01:34:08.941Z,17.10
2022-09-06T01:37:09.990Z,17.00
2022-09-06T01:39:41.671Z,17.00
2022-09-06T01:42:15.212Z,16.90
2022-09-06T01:44:48.170Z,16.90
2022-09-06T01:47:38.069Z,16.90
2022-09-06T01:50:20.869Z,16.90
2022-09-06T01:53:17.990Z,16.90
2022-09-06T01:56:07.630Z,16.90
2022-09-06T01:58:55.008Z,16.80
2022-09-06T02:01:34.705Z,16.80
2022-09-06T02:04:18.236Z,16.80
2022-09-06T02:06:54.760Z,16.80
2022-09-06T02:09:27.266Z,16.80
2022-09-06T02:11:59.606Z,16.80
2022-09-06T02:14:43.055Z,16.80
2022-09-06T02:17:15.618Z,16.80
2022-09-06T02:20:05.501Z,16.80
2022-09-06T02:22:41.772Z,16.80
2022-09-06T02:25:13.952Z,16.90
2022-09-06T02:27:42.344Z,16.90
2022-09-06T02:30:10.813Z,16.80
2022-09-06T02:32:59.041Z,16.80
2022-09-06T02:35:27.125Z,16.80
2022-09-06T02:37:56.528Z,16.80
2022-09-06T02:40:24.953Z,16.80
2022-09-06T02:42:54.278Z,16.70
2022-09-06T02:45:23.038Z,16.70
2022-09-06T02:47:52.311Z,16.70
2022-09-06T02:50:23.149Z,16.60
2022-09-06T02:53:06.945Z,16.60
2022-09-06T02:55:35.199Z,16.60
2022-09-06T02:58:03.571Z,16.60
2022-09-06T03:00:32.126Z,16.60
2022-09-06T03:03:01.021Z,16.60
2022-09-06T03:05:31.235Z,16.60
2022-09-06T03:08:00.498Z,16.60
2022-09-06T03:10:29.642Z,16.60
2022-09-06T03:12:58.629Z,16.60
2022-09-06T03:15:27.079Z,16.60
2022-09-06T03:17:59.578Z,16.50
2022-09-06T03:20:27.594Z,16.60
2022-09-06T03:22:56.279Z,16.60
2022-09-06T03:25:26.690Z,16.60
2022-09-06T03:27:57.624Z,16.50
2022-09-06T03:30:25.434Z,16.50
2022-09-06T03:32:54.192Z,16.50
2022-09-06T03:35:22.205Z,16.50
2022-09-06T03:37:49.998Z,16.50
2022-09-06T03:40:18.032Z,16.50
2022-09-06T03:42:52.827Z,16.50
2022-09-06T03:45:21.514Z,16.50
2022-09-06T03:47:49.406Z,16.50
2022-09-06T03:50:18.037Z,16.50
2022-09-06T03:52:49.156Z,16.50
2022-09-06T03:55:17.105Z,16.50
2022-09-06T03:57:45.117Z,16.40
2022-09-06T04:00:14.812Z,16.40
2022-09-06T04:02:43.358Z,16.40
2022-09-06T04:05:13.464Z,16.40
2022-09-06T04:07:44.174Z,16.40
2022-09-06T04:10:12.993Z,16.40
2022-09-06T04:12:41.029Z,16.40
2022-09-06T04:15:10.340Z,16.40
2022-09-06T04:17:39.300Z,16.40
2022-09-06T04:20:07.855Z,16.40
2022-09-06T04:22:36.275Z,16.40
2022-09-06T04:25:05.104Z,16.40
2022-09-06T04:27:34.020Z,16.40
2022-09-06T04:30:03.341Z,16.40
2022-09-06T04:32:34.117Z,16.50
2022-09-06T04:35:05.489Z,16.50
2022-09-06T04:37:34.733Z,16.50
2022-09-06T04:40:03.828Z,16.50
2022-09-06T04:42:35.311Z,16.50
2022-09-06T04:45:04.228Z,16.50
2022-09-06T04:47:32.419Z,16.60
2022-09-06T04:50:00.600Z,16.60
2022-09-06T04:52:30.434Z,16.60
2022-09-06T04:54:59.157Z,16.60
2022-09-06T04:57:30.990Z,16.60
2022-09-06T04:59:59.803Z,16.60
2022-09-06T05:02:28.269Z,16.60
2022-09-06T05:04:59.081Z,16.60
2022-09-06T05:07:29.991Z,16.60
2022-09-06T05:10:01.449Z,16.70
2022-09-06T05:12:31.779Z,16.60
2022-09-06T05:15:02.417Z,16.70
2022-09-06T05:17:31.529Z,16.70
2022-09-06T05:19:59.425Z,16.60
2022-09-06T05:22:28.551Z,16.70
2022-09-06T05:24:58.919Z,16.70
2022-09-06T05:27:29.460Z,16.70
2022-09-06T05:29:57.378Z,16.70
2022-09-06T05:32:43.604Z,16.70
2022-09-06T05:35:14.384Z,16.70
2022-09-06T05:37:42.506Z,16.70
2022-09-06T05:40:12.537Z,16.70
2022-09-06T05:42:41.493Z,16.70
2022-09-06T05:45:14.539Z,16.60
2022-09-06T05:47:44.007Z,16.60
2022-09-06T05:50:12.136Z,16.60
2022-09-06T05:52:43.027Z,16.60
2022-09-06T05:55:12.015Z,16.60
2022-09-06T05:57:42.529Z,16.60
2022-09-06T06:00:12.225Z,16.70
2022-09-06T06:02:41.329Z,16.70
2022-09-06T06:05:13.037Z,16.70
2022-09-06T06:07:44.139Z,16.70
2022-09-06T06:10:21.016Z,16.80
2022-09-06T06:12:50.184Z,16.80
2022-09-06T06:15:18.130Z,16.90
2022-09-06T06:17:46.090Z,16.90
2022-09-06T06:20:15.148Z,17.00
2022-09-06T06:22:43.545Z,17.10
2022-09-06T06:25:14.765Z,17.10
2022-09-06T06:27:44.185Z,17.20
2022-09-06T06:30:17.785Z,17.20
2022-09-06T06:32:47.271Z,17.40
2022-09-06T06:35:15.831Z,17.50
2022-09-06T06:37:45.900Z,17.50
2022-09-06T06:40:14.403Z,17.60
2022-09-06T06:42:44.662Z,17.60
2022-09-06T06:45:12.791Z,17.70
2022-09-06T06:47:42.495Z,17.80
2022-09-06T06:50:11.685Z,17.90
2022-09-06T06:52:42.731Z,17.90
2022-09-06T06:55:11.527Z,18.00
2022-09-06T06:57:39.590Z,18.00
2022-09-06T07:00:09.534Z,18.00
2022-09-06T07:02:39.065Z,18.00
2022-09-06T07:07:56.379Z,18.10
2022-09-06T07:10:34.476Z,18.20
2022-09-06T07:13:06.660Z,18.20
2022-09-06T07:15:35.223Z,18.30
2022-09-06T07:18:03.347Z,18.30
2022-09-06T07:20:31.981Z,18.40
2022-09-06T07:26:19.372Z,18.50
2022-09-06T07:28:48.715Z,18.50
2022-09-06T07:34:05.932Z,18.90
2022-09-06T07:36:37.481Z,19.10
2022-09-06T07:39:06.194Z,19.30
2022-09-06T07:41:34.889Z,19.50
2022-09-06T07:44:04.222Z,19.80
2022-09-06T07:46:32.907Z,20.00
2022-09-06T07:49:03.667Z,20.20
2022-09-06T07:51:32.807Z,20.40
2022-09-06T07:54:29.235Z,20.60
2022-09-06T07:56:53.438Z,20.70
2022-09-06T07:59:22.045Z,20.90
2022-09-06T08:01:51.034Z,21.00
2022-09-06T08:04:20.368Z,21.00
2022-09-06T08:09:43.319Z,20.80
2022-09-06T08:12:11.299Z,20.70
2022-09-06T08:14:41.847Z,20.60
2022-09-06T08:17:11.168Z,20.50
2022-09-06T08:19:39.410Z,20.60
2022-09-06T08:22:08.179Z,20.60
2022-09-06T08:24:36.600Z,20.70
2022-09-06T08:27:11.465Z,20.70
2022-09-06T08:29:40.451Z,20.80
2022-09-06T08:32:09.087Z,20.70
2022-09-06T08:34:37.772Z,20.70
2022-09-06T08:37:09.265Z,20.70
2022-09-06T08:39:39.127Z,20.60
2022-09-06T08:42:08.965Z,20.60
2022-09-06T08:47:28.054Z,20.40
2022-09-06T08:50:08.674Z,20.30
2022-09-06T08:53:17.986Z,20.20
2022-09-06T08:56:21.159Z,20.20
2022-09-06T08:59:05.056Z,20.20
2022-09-06T09:01:57.719Z,20.30
2022-09-06T09:04:28.671Z,20.30
2022-09-06T09:07:08.062Z,20.30
2022-09-06T09:09:37.021Z,20.40
2022-09-06T09:12:06.646Z,20.40
2022-09-06T09:14:38.171Z,20.50
2022-09-06T09:17:20.432Z,20.50
2022-09-06T09:19:49.330Z,20.40
2022-09-06T09:22:19.974Z,20.40
2022-09-06T09:24:52.007Z,20.40
2022-09-06T09:27:26.051Z,20.40
2022-09-06T09:32:48.183Z,20.40
2022-09-06T09:35:43.716Z,20.40
2022-09-06T09:38:39.840Z,20.50
2022-09-06T09:41:09.760Z,20.50
2022-09-06T09:43:53.770Z,20.60
2022-09-06T09:46:25.546Z,20.60
2022-09-06T09:49:26.662Z,20.60
2022-09-06T09:52:14.111Z,20.70
2022-09-06T09:54:46.827Z,20.70
2022-09-06T09:57:18.858Z,20.80
2022-09-06T09:59:54.265Z,20.80
2022-09-06T10:02:27.696Z,20.80
2022-09-06T10:05:06.856Z,20.80
2022-09-06T10:07:43.060Z,20.90
2022-09-06T10:10:15.428Z,20.90
2022-09-06T10:12:46.404Z,20.90
2022-09-06T10:15:47.368Z,20.90
2022-09-06T10:18:32.973Z,21.00
2022-09-06T10:21:24.105Z,21.00
2022-09-06T10:24:40.684Z,21.00
2022-09-06T10:27:12.274Z,21.10
2022-09-06T10:30:09.927Z,21.10
2022-09-06T10:33:20.199Z,21.10
2022-09-06T10:35:49.238Z,21.20
2022-09-06T10:38:24.867Z,21.20
2022-09-06T10:40:58.063Z,21.20
2022-09-06T10:43:33.010Z,21.30
2022-09-06T10:46:09.591Z,21.30
2022-09-06T10:49:28.826Z,21.40
2022-09-06T10:52:03.521Z,21.50
2022-09-06T10:54:36.176Z,21.60
2022-09-06T11:00:14.741Z,21.60
2022-09-06T11:05:59.247Z,21.40
2022-09-06T11:08:57.756Z,21.50
2022-09-06T11:12:05.298Z,21.50
2022-09-06T11:14:35.931Z,21.40
2022-09-06T11:17:20.626Z,21.40
2022-09-06T11:20:07.838Z,21.50
2022-09-06T11:22:56.406Z,21.50
2022-09-06T11:25:57.410Z,21.60
2022-09-06T11:28:43.934Z,21.60
2022-09-06T11:34:31.497Z,21.60
2022-09-06T11:37:07.282Z,21.70
2022-09-06T11:42:47.914Z,21.70
2022-09-06T11:45:40.730Z,21.80
2022-09-06T11:48:26.944Z,21.90
2022-09-06T11:50:58.939Z,21.90
2022-09-06T11:53:34.279Z,21.90
2022-09-06T11:56:02.399Z,22.00
2022-09-06T11:58:40.249Z,22.00
2022-09-06T12:01:16.744Z,22.00
2022-09-06T12:04:06.173Z,22.00
2022-09-06T12:07:02.937Z,22.10
2022-09-06T12:09:34.632Z,22.20
2022-09-06T12:12:04.590Z,22.30
2022-09-06T12:14:37.095Z,22.40
2022-09-06T12:17:07.418Z,22.50
2022-09-06T12:19:59.662Z,22.70
2022-09-06T12:22:31.544Z,22.90
2022-09-06T12:25:04.652Z,23.00
2022-09-06T12:27:39.856Z,23.10
2022-09-06T12:30:12.490Z,23.20
2022-09-06T12:32:45.418Z,23.20
2022-09-06T12:38:08.221Z,23.20
2022-09-06T12:40:54.989Z,23.20
2022-09-06T12:43:23.547Z,23.30
2022-09-06T12:45:53.054Z,23.40
2022-09-06T12:48:35.590Z,23.50
2022-09-06T12:51:19.864Z,23.70
2022-09-06T12:53:52.793Z,23.80
2022-09-06T12:56:23.871Z,23.70
2022-09-06T12:58:54.499Z,23.70
2022-09-06T13:01:35.450Z,23.60
2022-09-06T13:04:19.307Z,23.70
2022-09-06T13:06:48.926Z,23.90
2022-09-06T13:09:22.390Z,24.00
2022-09-06T13:11:56.609Z,23.90
2022-09-06T13:14:27.909Z,23.90
2022-09-06T13:16:57.362Z,23.80
2022-09-06T13:19:29.290Z,23.80
2022-09-06T13:22:03.027Z,23.80
2022-09-06T13:24:35.157Z,23.90
2022-09-06T13:27:24.070Z,23.90
2022-09-06T13:30:00.816Z,24.00
2022-09-06T13:32:30.905Z,24.00
2022-09-06T13:35:01.331Z,24.10
2022-09-06T13:37:36.407Z,24.00
2022-09-06T13:41:06.961Z,24.00
2022-09-06T13:43:45.172Z,24.00
2022-09-06T13:46:22.554Z,24.10
2022-09-06T13:48:58.556Z,24.00
2022-09-06T13:53:43.486Z,23.80
2022-09-06T13:56:13.775Z,23.70
2022-09-06T13:58:47.284Z,23.50
2022-09-06T14:01:19.508Z,23.40
2022-09-06T14:03:49.921Z,23.40
2022-09-06T14:06:19.282Z,23.30
2022-09-06T14:09:07.403Z,23.30
2022-09-06T14:11:37.101Z,23.30
2022-09-06T14:14:06.016Z,23.20
2022-09-06T14:16:34.689Z,23.10
2022-09-06T14:19:04.731Z,22.90
2022-09-06T14:21:34.899Z,22.80
2022-09-06T14:24:04.718Z,22.70
2022-09-06T14:26:35.863Z,22.70
2022-09-06T14:29:05.539Z,22.70
2022-09-06T14:31:34.272Z,22.90
2022-09-06T14:34:04.265Z,23.00
2022-09-06T14:36:34.576Z,23.00
2022-09-06T14:39:06.366Z,23.00
2022-09-06T14:41:35.840Z,23.00
2022-09-06T14:44:06.284Z,22.80
2022-09-06T14:46:35.289Z,22.70
2022-09-06T14:49:10.311Z,22.70
2022-09-06T14:51:41.711Z,22.60
2022-09-06T14:54:12.993Z,22.60
2022-09-06T14:56:42.612Z,22.70
2022-09-06T14:59:13.413Z,22.70
2022-09-06T15:01:43.149Z,22.60
2022-09-06T15:04:12.526Z,22.70
2022-09-06T15:06:44.987Z,22.80
2022-09-06T15:09:15.365Z,22.90
2022-09-06T15:11:47.145Z,23.10
2022-09-06T15:14:26.567Z,23.30
2022-09-06T15:17:00.197Z,23.40
2022-09-06T15:19:34.030Z,23.50
2022-09-06T15:22:06.808Z,23.50
2022-09-06T15:24:36.893Z,23.50
2022-09-06T15:27:05.444Z,23.50
2022-09-06T15:29:34.881Z,23.50
2022-09-06T15:32:03.460Z,23.50
2022-09-06T15:34:32.372Z,23.30
2022-09-06T15:37:01.397Z,23.20
2022-09-06T15:39:30.092Z,23.20
2022-09-06T15:41:58.906Z,23.00
2022-09-06T15:44:28.753Z,22.90
2022-09-06T15:46:59.243Z,22.80
2022-09-06T15:49:31.852Z,22.80
2022-09-06T15:52:02.738Z,22.70
2022-09-06T15:54:50.068Z,22.60
2022-09-06T15:57:20.373Z,22.50
2022-09-06T15:59:49.358Z,22.50
2022-09-06T16:02:24.138Z,22.40
2022-09-06T16:04:52.320Z,22.40
2022-09-06T16:07:20.696Z,22.30
2022-09-06T16:09:54.422Z,22.20
2022-09-06T16:12:23.371Z,22.10
2022-09-06T16:14:52.889Z,22.00
2022-09-06T16:17:22.049Z,21.90
2022-09-06T16:19:50.125Z,21.90
2022-09-06T16:22:19.026Z,21.80
2022-09-06T16:24:48.165Z,21.70
2022-09-06T16:27:19.243Z,21.50
2022-09-06T16:29:50.638Z,21.30
2022-09-06T16:32:21.552Z,21.10
2022-09-06T16:34:53.131Z,20.90
2022-09-06T16:37:21.462Z,20.70
2022-09-06T16:39:49.940Z,20.60
2022-09-06T16:42:21.801Z,20.50
2022-09-06T16:44:50.215Z,20.40
2022-09-06T16:47:18.764Z,20.40
2022-09-06T16:49:50.673Z,20.30
2022-09-06T16:52:19.993Z,20.30
2022-09-06T16:54:49.713Z,20.20
2022-09-06T16:57:22.349Z,20.20
2022-09-06T16:59:51.583Z,20.20
2022-09-06T17:02:22.460Z,20.10
2022-09-06T17:04:51.137Z,20.10
2022-09-06T17:07:19.393Z,20.00
2022-09-06T17:09:48.085Z,20.00
2022-09-06T17:12:16.775Z,19.90
2022-09-06T17:14:46.042Z,19.90
2022-09-06T17:17:16.587Z,19.90
2022-09-06T17:19:50.681Z,19.90
2022-09-06T17:22:19.612Z,19.80
2022-09-06T17:24:47.740Z,19.80
2022-09-06T17:27:16.764Z,19.70
2022-09-06T17:29:47.629Z,19.70
2022-09-06T17:32:19.791Z,19.70
2022-09-06T17:34:48.556Z,19.70
2022-09-06T17:37:17.133Z,19.60
2022-09-06T17:39:45.163Z,19.60
2022-09-06T17:42:15.635Z,19.60
2022-09-06T17:44:46.535Z,19.50
2022-09-06T17:47:17.694Z,19.50
2022-09-06T17:49:45.753Z,19.50
2022-09-06T17:52:14.039Z,19.50
2022-09-06T17:54:47.187Z,19.50
2022-09-06T17:57:15.723Z,19.50
2022-09-06T17:59:44.081Z,19.50
2022-09-06T18:02:13.279Z,19.40
2022-09-06T18:04:41.660Z,19.40
2022-09-06T18:07:10.774Z,19.40
2022-09-06T18:09:40.658Z,19.30
2022-09-06T18:12:09.351Z,19.30
2022-09-06T18:14:38.470Z,19.30
2022-09-06T18:17:08.514Z,19.30
2022-09-06T18:19:40.634Z,19.30
2022-09-06T18:22:14.170Z,19.20
2022-09-06T18:24:42.986Z,19.20
2022-09-06T18:27:11.559Z,19.20
2022-09-06T18:29:40.131Z,19.20
2022-09-06T18:32:09.370Z,19.20
2022-09-06T18:34:39.955Z,19.10
2022-09-06T18:37:10.895Z,19.20
2022-09-06T18:39:39.716Z,19.10
2022-09-06T18:42:11.324Z,19.10
2022-09-06T18:44:40.735Z,19.10
2022-09-06T18:47:13.492Z,19.10
2022-09-06T18:49:44.248Z,19.00
2022-09-06T18:52:12.887Z,19.00
2022-09-06T18:54:41.247Z,19.00
2022-09-06T18:57:10.523Z,18.90
2022-09-06T18:59:42.110Z,18.80
2022-09-06T19:02:11.581Z,18.80
2022-09-06T19:04:39.903Z,18.80
2022-09-06T19:07:08.263Z,18.80
2022-09-06T19:09:38.194Z,18.70
2022-09-06T19:12:08.091Z,18.70
2022-09-06T19:14:36.450Z,18.70
2022-09-06T19:17:05.675Z,18.60
2022-09-06T19:19:34.876Z,18.60
2022-09-06T19:22:03.256Z,18.60
2022-09-06T19:24:32.988Z,18.50
2022-09-06T19:27:03.623Z,18.50
2022-09-06T19:29:36.537Z,18.50
2022-09-06T19:32:09.246Z,18.40
2022-09-06T19:34:38.034Z,18.40
2022-09-06T19:37:07.489Z,18.40
2022-09-06T19:39:39.387Z,18.30
2022-09-06T19:42:08.319Z,18.30
2022-09-06T19:44:37.461Z,18.20
2022-09-06T19:47:07.338Z,18.20
2022-09-06T19:49:35.728Z,18.10
2022-09-06T19:52:09.653Z,18.00
2022-09-06T19:54:41.077Z,18.00
2022-09-06T19:57:11.131Z,18.00
2022-09-06T19:59:40.519Z,17.90
2022-09-06T20:02:09.657Z,17.90
2022-09-06T20:05:32.673Z,17.80
2022-09-06T20:08:01.323Z,17.70
2022-09-06T20:10:29.794Z,17.60
2022-09-06T20:12:57.757Z,17.60
2022-09-06T20:15:27.015Z,17.60
2022-09-06T20:17:55.238Z,17.50
2022-09-06T20:20:23.941Z,17.40
2022-09-06T20:22:52.059Z,17.40
2022-09-06T20:25:21.716Z,17.40
2022-09-06T20:27:49.984Z,17.30
2022-09-06T20:30:18.699Z,17.30
2022-09-06T20:32:47.081Z,17.30
2022-09-06T20:35:15.435Z,17.30
2022-09-06T20:37:43.975Z,17.20
2022-09-06T20:40:13.158Z,17.20
2022-09-06T20:42:43.729Z,17.10
2022-09-06T20:45:13.004Z,17.10
2022-09-06T20:47:41.960Z,17.10
2022-09-06T20:50:11.441Z,17.00
2022-09-06T20:52:40.595Z,17.00
2022-09-06T20:55:09.473Z,17.00
2022-09-06T20:57:38.186Z,17.00
2022-09-06T21:00:07.986Z,16.90
2022-09-06T21:02:37.462Z,16.90
2022-09-06T21:05:05.406Z,16.90
2022-09-06T21:07:33.566Z,16.80
2022-09-06T21:10:02.025Z,16.70
2022-09-06T21:12:30.336Z,16.80
2022-09-06T21:14:59.499Z,16.70
2022-09-06T21:17:27.266Z,16.70
2022-09-06T21:19:55.528Z,16.70
2022-09-06T21:22:23.613Z,16.60
2022-09-06T21:24:51.889Z,16.60
2022-09-06T21:27:20.145Z,16.60
2022-09-06T21:29:48.861Z,16.60
2022-09-06T21:32:17.281Z,16.60
2022-09-06T21:34:45.218Z,16.50
2022-09-06T21:37:14.547Z,16.50
2022-09-06T21:39:42.739Z,16.50
2022-09-06T21:42:11.227Z,16.50
2022-09-06T21:44:40.416Z,16.50
2022-09-06T21:47:08.284Z,16.40
2022-09-06T21:49:36.635Z,16.40
2022-09-06T21:52:05.722Z,16.40
2022-09-06T21:54:33.705Z,16.40
2022-09-06T21:57:01.652Z,16.40
2022-09-06T21:59:29.674Z,16.40
2022-09-06T22:01:58.825Z,16.30
2022-09-06T22:04:26.882Z,16.40
2022-09-06T22:06:55.425Z,16.40
2022-09-06T22:09:24.028Z,16.30
2022-09-06T22:11:52.299Z,16.30
2022-09-06T22:14:20.378Z,16.30
2022-09-06T22:16:49.689Z,16.30
2022-09-06T22:19:19.697Z,16.30
2022-09-06T22:21:48.239Z,16.30
2022-09-06T22:24:17.539Z,16.30
2022-09-06T22:26:45.960Z,16.30
2022-09-06T22:29:15.432Z,16.30
2022-09-06T22:31:43.820Z,16.30
2022-09-06T22:34:11.773Z,16.20
2022-09-06T22:36:39.903Z,16.20
2022-09-06T22:39:09.615Z,16.20
2022-09-06T22:41:37.765Z,16.20
2022-09-06T22:44:06.023Z,16.20
2022-09-06T22:46:34.019Z,16.20
2022-09-06T22:49:04.041Z,16.20
2022-09-06T22:51:32.939Z,16.20
2022-09-06T22:54:04.672Z,16.20
2022-09-06T22:56:33.542Z,16.20
2022-09-06T22:59:01.692Z,16.20
2022-09-06T23:01:30.112Z,16.20
2022-09-06T23:03:58.975Z,16.20
2022-09-06T23:06:27.867Z,16.20
2022-09-06T23:08:56.194Z,16.20
2022-09-06T23:11:24.367Z,16.20
2022-09-06T23:13:56.502Z,16.20
2022-09-06T23:16:25.448Z,16.20
2022-09-06T23:18:54.709Z,16.20
2022-09-06T23:21:27.143Z,16.20
2022-09-06T23:23:57.242Z,16.20
2022-09-06T23:26:29.178Z,16.20
2022-09-06T23:28:57.968Z,16.20
2022-09-06T23:31:27.945Z,16.20
2022-09-06T23:33:57.383Z,16.20
2022-09-06T23:36:26.244Z,16.20
2022-09-06T23:38:54.406Z,16.20
2022-09-06T23:41:22.478Z,16.20
2022-09-06T23:43:52.056Z,16.20
2022-09-06T23:46:20.944Z,16.20
2022-09-06T23:48:48.864Z,16.20
2022-09-06T23:51:17.818Z,16.20
2022-09-06T23:53:46.702Z,16.20
2022-09-06T23:56:15.793Z,16.20
2022-09-06T23:58:44.366Z,16.20
